createdAt,value
2019-04-25T00:01:13.993Z,3.20
2019-04-25T00:03:43.698Z,3.03
2019-04-25T00:06:14.485Z,3.57
2019-04-25T00:08:44.108Z,3.20
2019-04-25T00:11:13.035Z,3.20
2019-04-25T00:13:42.788Z,3.10
2019-04-25T00:16:12.778Z,3.23
2019-04-25T00:18:42.776Z,3.20
2019-04-25T00:21:22.110Z,3.57
2019-04-25T00:23:55.667Z,3.30
2019-04-25T00:26:32.860Z,3.57
2019-04-25T00:29:01.970Z,3.23
2019-04-25T00:31:32.019Z,3.57
2019-04-25T00:34:02.195Z,3.43
2019-04-25T00:36:31.878Z,3.40
2019-04-25T00:39:01.969Z,3.30
2019-04-25T00:41:32.059Z,3.13
2019-04-25T00:44:02.420Z,3.60
2019-04-25T00:46:32.182Z,3.10
2019-04-25T00:49:02.442Z,3.40
2019-04-25T00:51:31.782Z,3.00
2019-04-25T00:54:02.413Z,3.00
2019-04-25T00:56:32.192Z,3.53
2019-04-25T00:59:07.252Z,3.00
2019-04-25T01:01:47.930Z,3.40
2019-04-25T01:04:17.504Z,3.33
2019-04-25T01:06:46.191Z,3.30
2019-04-25T01:09:17.164Z,3.40
2019-04-25T01:11:45.971Z,3.47
2019-04-25T01:14:14.687Z,3.30
2019-04-25T01:16:43.399Z,3.40
2019-04-25T01:19:13.408Z,3.70
2019-04-25T01:21:43.902Z,3.50
2019-04-25T01:24:14.130Z,3.30
2019-04-25T01:26:43.890Z,3.30
2019-04-25T01:29:13.598Z,3.70
2019-04-25T01:31:43.424Z,3.40
2019-04-25T01:34:14.252Z,3.57
2019-04-25T01:36:50.808Z,3.53
2019-04-25T01:39:47.740Z,3.60
2019-04-25T01:42:33.785Z,3.23
2019-04-25T01:45:06.717Z,3.47
2019-04-25T01:47:35.460Z,3.73
2019-04-25T01:50:04.605Z,3.73
2019-04-25T01:52:33.515Z,3.70
2019-04-25T01:55:03.500Z,3.83
2019-04-25T01:57:33.711Z,3.20
2019-04-25T02:00:03.914Z,3.53
2019-04-25T02:02:33.597Z,3.80
2019-04-25T02:05:04.759Z,3.67
2019-04-25T02:07:33.687Z,3.60
2019-04-25T02:10:03.754Z,3.37
2019-04-25T02:12:41.596Z,3.60
2019-04-25T02:15:13.735Z,3.50
2019-04-25T02:17:43.882Z,3.80
2019-04-25T02:20:13.964Z,3.67
2019-04-25T02:22:44.193Z,3.50
2019-04-25T02:25:13.345Z,3.80
2019-04-25T02:27:41.995Z,3.67
2019-04-25T02:30:11.664Z,3.50
2019-04-25T02:32:40.324Z,3.73
2019-04-25T02:35:09.905Z,3.87
2019-04-25T02:37:38.728Z,3.90
2019-04-25T02:40:08.447Z,3.90
2019-04-25T02:42:37.623Z,4.17
2019-04-25T02:45:16.604Z,4.10
2019-04-25T02:48:05.669Z,4.10
2019-04-25T02:50:50.181Z,4.07
2019-04-25T02:53:39.213Z,4.67
2019-04-25T02:56:26.034Z,4.73
2019-04-25T02:58:38.151Z,4.93
2019-04-25T03:01:17.942Z,4.87
2019-04-25T03:03:38.714Z,4.60
2019-04-25T03:06:09.378Z,4.83
2019-04-25T03:08:37.746Z,4.40
2019-04-25T03:11:07.873Z,5.00
2019-04-25T03:13:36.708Z,4.37
2019-04-25T03:16:08.861Z,4.83
2019-04-25T03:18:40.680Z,4.30
2019-04-25T03:21:17.513Z,4.73
2019-04-25T03:23:46.814Z,4.97
2019-04-25T03:26:15.427Z,4.50
2019-04-25T03:28:44.258Z,4.23
2019-04-25T03:31:18.579Z,4.80
2019-04-25T03:33:45.919Z,4.77
2019-04-25T03:36:16.711Z,5.00
2019-04-25T03:38:44.325Z,4.90
2019-04-25T03:41:14.651Z,5.10
2019-04-25T03:43:44.210Z,5.10
2019-04-25T03:46:14.377Z,5.07
2019-04-25T03:48:44.127Z,4.60
2019-04-25T03:51:15.661Z,4.60
2019-04-25T03:53:44.654Z,4.87
2019-04-25T03:56:14.616Z,5.00
2019-04-25T03:58:43.952Z,5.33
2019-04-25T04:01:13.835Z,5.47
2019-04-25T04:03:43.989Z,5.77
2019-04-25T04:06:15.249Z,5.97
2019-04-25T04:08:44.338Z,5.20
2019-04-25T04:11:14.599Z,5.57
2019-04-25T04:13:44.839Z,5.37
2019-04-25T04:16:15.786Z,5.90
2019-04-25T04:18:46.362Z,5.80
2019-04-25T04:21:24.855Z,5.47
2019-04-25T04:24:11.791Z,5.57
2019-04-25T04:26:40.509Z,5.40
2019-04-25T04:29:10.025Z,4.50
2019-04-25T04:31:38.983Z,4.80
2019-04-25T04:34:08.539Z,4.80
2019-04-25T04:36:37.575Z,5.23
2019-04-25T04:39:07.786Z,5.20
2019-04-25T04:41:37.030Z,4.83
2019-04-25T04:44:05.728Z,4.90
2019-04-25T04:46:34.348Z,5.03
2019-04-25T04:49:03.865Z,4.93
2019-04-25T04:51:33.600Z,4.90
2019-04-25T04:54:03.408Z,4.47
2019-04-25T04:56:34.058Z,4.67
2019-04-25T04:59:03.698Z,4.33
2019-04-25T05:01:35.338Z,4.23
2019-04-25T05:04:10.694Z,4.20
2019-04-25T05:06:48.035Z,4.77
2019-04-25T05:09:20.657Z,4.20
2019-04-25T05:11:49.562Z,3.83
2019-04-25T05:14:18.239Z,3.83
2019-04-25T05:16:49.474Z,4.00
2019-04-25T05:19:18.051Z,3.60
2019-04-25T05:21:46.830Z,3.10
2019-04-25T05:24:16.419Z,3.43
2019-04-25T05:26:45.698Z,3.40
2019-04-25T05:29:19.769Z,3.67
2019-04-25T05:31:48.096Z,3.40
2019-04-25T05:34:17.230Z,3.03
2019-04-25T05:36:46.968Z,3.00
2019-04-25T05:39:17.743Z,3.23
2019-04-25T05:41:56.477Z,3.20
2019-04-25T05:44:27.338Z,2.90
2019-04-25T05:46:55.657Z,3.10
2019-04-25T05:49:25.212Z,3.37
2019-04-25T05:51:54.458Z,2.97
2019-04-25T05:54:24.793Z,3.53
2019-04-25T05:57:10.395Z,3.20
2019-04-25T05:59:38.959Z,3.23
2019-04-25T06:02:07.568Z,3.40
2019-04-25T06:04:36.248Z,3.23
2019-04-25T06:07:05.707Z,3.27
2019-04-25T06:09:54.430Z,3.47
2019-04-25T06:12:53.555Z,3.30
2019-04-25T06:15:26.228Z,3.27
2019-04-25T06:18:17.062Z,3.13
2019-04-25T06:20:45.791Z,2.80
2019-04-25T06:23:32.308Z,3.20
2019-04-25T06:26:16.077Z,2.83
2019-04-25T06:28:34.522Z,3.40
2019-04-25T06:31:04.449Z,3.17
2019-04-25T06:33:33.913Z,3.03
2019-04-25T06:36:04.163Z,3.00
2019-04-25T06:38:33.498Z,3.30
2019-04-25T06:41:03.577Z,3.00
2019-04-25T06:43:34.106Z,2.80
2019-04-25T06:46:40.125Z,3.00
2019-04-25T06:49:13.480Z,3.00
2019-04-25T06:51:54.207Z,3.00
2019-04-25T06:54:25.279Z,3.23
2019-04-25T06:56:53.632Z,3.30
2019-04-25T06:59:25.566Z,3.00
2019-04-25T07:01:54.141Z,3.40
2019-04-25T07:04:26.205Z,3.33
2019-04-25T07:06:53.792Z,3.03
2019-04-25T07:09:24.427Z,3.13
2019-04-25T07:11:53.883Z,3.17
2019-04-25T07:14:25.492Z,2.97
2019-04-25T07:16:53.318Z,3.03
2019-04-25T07:19:24.770Z,3.13
2019-04-25T07:21:54.138Z,3.13
2019-04-25T07:24:24.837Z,3.10
2019-04-25T07:27:11.171Z,2.93
2019-04-25T07:29:48.948Z,3.00
2019-04-25T07:32:30.843Z,3.00
2019-04-25T07:35:03.631Z,3.40
2019-04-25T07:37:37.225Z,2.90
2019-04-25T07:40:06.399Z,2.87
2019-04-25T07:42:35.419Z,3.10
2019-04-25T07:45:06.076Z,2.53
2019-04-25T07:47:35.476Z,3.60
2019-04-25T07:50:05.740Z,3.00
2019-04-25T07:52:35.488Z,2.87
2019-04-25T07:55:04.792Z,2.90
2019-04-25T07:57:34.585Z,3.07
2019-04-25T08:00:05.134Z,2.77
2019-04-25T08:02:34.171Z,2.77
2019-04-25T08:05:10.958Z,2.60
2019-04-25T08:07:39.948Z,3.27
2019-04-25T08:10:09.173Z,2.97
2019-04-25T08:12:39.357Z,2.70
2019-04-25T08:15:20.239Z,2.93
2019-04-25T08:18:00.728Z,2.70
2019-04-25T08:20:30.482Z,2.83
2019-04-25T08:23:00.673Z,2.87
2019-04-25T08:25:29.389Z,2.50
2019-04-25T08:27:58.081Z,2.40
2019-04-25T08:30:27.090Z,2.70
2019-04-25T08:32:55.717Z,2.80
2019-04-25T08:35:24.380Z,2.40
2019-04-25T08:37:53.764Z,2.87
2019-04-25T08:40:23.761Z,3.20
2019-04-25T08:42:53.785Z,2.70
2019-04-25T08:45:25.102Z,2.40
2019-04-25T08:47:53.960Z,2.70
2019-04-25T08:50:37.525Z,2.65
2019-04-25T08:53:04.882Z,2.58
2019-04-25T08:55:48.319Z,2.33
2019-04-25T08:58:29.598Z,2.52
2019-04-25T09:01:06.780Z,2.40
2019-04-25T09:03:44.440Z,2.60
2019-04-25T09:06:14.221Z,2.60
2019-04-25T09:08:45.370Z,2.40
2019-04-25T09:11:14.007Z,2.33
2019-04-25T09:13:43.838Z,2.30
2019-04-25T09:16:13.822Z,2.50
2019-04-25T09:18:44.975Z,2.60
2019-04-25T09:21:14.565Z,2.37
2019-04-25T09:23:43.728Z,2.45
2019-04-25T09:26:14.285Z,2.45
2019-04-25T09:28:45.306Z,2.75
2019-04-25T09:31:14.061Z,2.60
2019-04-25T09:33:45.105Z,2.45
2019-04-25T09:36:14.182Z,2.10
2019-04-25T09:38:47.980Z,2.37
2019-04-25T09:41:15.256Z,2.60
2019-04-25T09:43:45.707Z,2.40
2019-04-25T09:46:20.084Z,2.55
2019-04-25T09:49:08.368Z,2.25
2019-04-25T09:52:44.355Z,2.40
2019-04-25T09:56:39.063Z,2.40
2019-04-25T10:04:14.784Z,2.37
2019-04-25T10:04:46.382Z,2.00
2019-04-25T10:07:24.657Z,2.30
2019-04-25T10:30:23.067Z,2.40
2019-04-25T10:32:59.496Z,2.42
2019-04-25T10:35:48.333Z,2.42
2019-04-25T11:18:58.462Z,2.40
2019-04-25T11:21:27.289Z,2.52
2019-04-25T11:23:56.349Z,2.50
2019-04-25T11:26:25.284Z,2.35
2019-04-25T11:28:56.465Z,2.50
2019-04-25T11:31:30.009Z,2.55
2019-04-25T11:33:58.979Z,2.45
2019-04-25T11:36:27.831Z,2.62
2019-04-25T11:39:23.926Z,2.98
2019-04-25T12:08:28.201Z,2.65
2019-04-25T12:20:23.806Z,2.50
2019-04-25T12:23:04.146Z,2.50
2019-04-25T14:06:54.251Z,2.17
2019-04-25T14:09:24.885Z,2.10
2019-04-25T14:11:54.419Z,2.30
2019-04-25T14:14:23.004Z,2.12
2019-04-25T14:17:03.011Z,2.85
2019-04-25T14:19:57.304Z,2.27
2019-04-25T14:22:27.581Z,2.70
2019-04-25T14:24:56.525Z,2.58
2019-04-25T14:27:26.296Z,3.20
2019-04-25T14:29:55.553Z,3.27
2019-04-25T14:32:28.906Z,2.25
2019-04-25T14:34:58.167Z,2.20
2019-04-25T14:37:32.319Z,2.40
2019-04-25T14:39:59.491Z,2.12
2019-04-25T14:42:28.658Z,1.92
2019-04-25T14:45:01.394Z,1.95
2019-04-25T14:47:30.029Z,2.08
2019-04-25T14:49:58.639Z,2.30
2019-04-25T14:52:29.622Z,2.30
2019-04-25T14:55:05.660Z,2.02
2019-04-25T14:57:35.031Z,1.98
2019-04-25T15:00:05.669Z,2.10
2019-04-25T15:02:36.883Z,2.00
2019-04-25T15:05:05.446Z,2.10
2019-04-25T15:07:34.340Z,2.22
2019-04-25T15:10:02.899Z,2.80
2019-04-25T15:12:31.821Z,2.50
2019-04-25T15:15:00.694Z,2.45
2019-04-25T15:17:29.681Z,2.70
2019-04-25T15:19:58.259Z,2.87
2019-04-25T15:22:27.930Z,2.30
2019-04-25T15:24:59.650Z,2.27
2019-04-25T15:27:30.096Z,2.58
2019-04-25T15:29:59.024Z,2.58
2019-04-25T15:32:31.036Z,2.00
2019-04-25T15:34:59.774Z,1.90
2019-04-25T15:37:36.471Z,2.02
2019-04-25T15:40:19.173Z,2.00
2019-04-25T15:42:55.577Z,2.08
2019-04-25T15:45:38.288Z,2.00
2019-04-25T15:48:08.256Z,2.02
2019-04-25T15:50:37.095Z,2.10
2019-04-25T15:53:06.004Z,1.80
2019-04-25T15:55:34.876Z,2.25
2019-04-25T15:58:04.046Z,2.70
2019-04-25T16:00:37.065Z,2.50
2019-04-25T16:03:07.261Z,2.75
2019-04-25T16:05:36.178Z,3.02
2019-04-25T16:08:04.795Z,3.33
2019-04-25T16:10:34.013Z,3.80
2019-04-25T16:13:02.628Z,3.27
2019-04-25T16:15:31.214Z,3.22
2019-04-25T16:17:59.878Z,3.17
2019-04-25T16:20:31.429Z,2.67
2019-04-25T16:23:00.128Z,2.42
2019-04-25T16:25:29.848Z,2.50
2019-04-25T16:27:58.442Z,2.12
2019-04-25T16:30:31.219Z,1.87
2019-04-25T16:32:59.767Z,1.52
2019-04-25T16:35:28.579Z,1.80
2019-04-25T16:37:58.487Z,1.85
2019-04-25T16:40:27.540Z,1.60
2019-04-25T16:42:59.272Z,1.62
2019-04-25T16:45:28.937Z,1.60
2019-04-25T16:47:58.281Z,1.80
2019-04-25T16:50:27.277Z,1.62
2019-04-25T16:52:55.832Z,1.90
2019-04-25T16:55:24.606Z,1.50
2019-04-25T16:57:53.420Z,1.82
2019-04-25T17:00:36.514Z,1.82
2019-04-25T17:03:05.121Z,2.10
2019-04-25T17:05:34.687Z,1.87
2019-04-25T17:08:03.255Z,1.80
2019-04-25T17:10:32.787Z,2.10
2019-04-25T17:13:01.511Z,2.35
2019-04-25T17:15:36.771Z,2.50
2019-04-25T17:18:08.615Z,2.45
2019-04-25T17:20:41.809Z,2.60
2019-04-25T17:23:12.104Z,2.90
2019-04-25T17:25:40.678Z,2.77
2019-04-25T17:28:12.546Z,2.98
2019-04-25T17:30:42.789Z,3.05
2019-04-25T17:33:17.896Z,1.92
2019-04-25T17:36:04.245Z,2.20
2019-04-25T17:38:42.444Z,1.90
2019-04-25T17:41:11.028Z,2.05
2019-04-25T17:43:39.630Z,2.20
2019-04-25T17:46:10.987Z,2.20
2019-04-25T17:48:40.512Z,1.90
2019-04-25T17:51:09.190Z,2.27
2019-04-25T17:53:39.024Z,2.70
2019-04-25T17:56:08.244Z,2.30
2019-04-25T17:58:37.258Z,2.50
2019-04-25T18:01:07.859Z,1.90
2019-04-25T18:03:37.295Z,2.00
2019-04-25T18:06:06.214Z,1.57
2019-04-25T18:08:35.627Z,1.35
2019-04-25T18:24:32.114Z,1.50
2019-04-25T18:27:12.651Z,1.27
2019-04-25T18:29:41.635Z,1.30
2019-04-25T18:32:10.426Z,1.67
2019-04-25T18:34:45.161Z,1.70
2019-04-25T18:37:37.199Z,1.20
2019-04-25T18:40:40.536Z,1.53
2019-04-25T18:43:14.021Z,1.30
2019-04-25T18:45:46.509Z,1.23
2019-04-25T18:48:16.574Z,1.10
2019-04-25T18:50:46.729Z,1.60
2019-04-25T18:53:35.171Z,1.40
2019-04-25T18:56:22.715Z,1.43
2019-04-25T18:59:19.060Z,1.50
2019-04-25T19:02:13.259Z,1.40
2019-04-25T19:05:07.139Z,1.57
2019-04-25T19:07:36.282Z,1.30
2019-04-25T19:10:06.039Z,1.77
2019-04-25T19:12:36.171Z,1.50
2019-04-25T19:15:04.866Z,1.50
2019-04-25T19:17:34.194Z,1.60
2019-04-25T19:20:02.803Z,1.30
2019-04-25T19:22:31.383Z,1.70
2019-04-25T19:24:59.971Z,1.40
2019-04-25T19:27:28.686Z,1.80
2019-04-25T19:29:57.263Z,2.00
2019-04-25T19:32:26.964Z,1.90
2019-04-25T19:34:55.647Z,1.90
2019-04-25T19:37:24.242Z,2.10
2019-04-25T19:40:12.578Z,2.10
2019-04-25T19:42:48.867Z,1.90
2019-04-25T19:45:17.634Z,2.10
2019-04-25T19:47:47.116Z,2.10
2019-04-25T19:50:15.895Z,2.20
2019-04-25T19:52:45.536Z,2.50
2019-04-25T19:55:14.674Z,2.73
2019-04-25T19:57:43.803Z,2.57
2019-04-25T20:00:12.974Z,2.60
2019-04-25T20:02:48.653Z,2.50
2019-04-25T20:05:41.893Z,3.00
2019-04-25T20:08:31.305Z,2.57
2019-04-25T20:11:08.344Z,2.73
2019-04-25T20:13:37.261Z,2.80
2019-04-25T20:16:05.878Z,3.03
2019-04-25T20:18:34.558Z,2.70
2019-04-25T20:21:03.334Z,3.07
2019-04-25T20:23:32.243Z,3.00
2019-04-25T20:26:01.141Z,3.10
2019-04-25T20:28:30.719Z,3.53
2019-04-25T20:30:59.299Z,2.93
2019-04-25T20:33:27.849Z,3.10
2019-04-25T20:35:56.428Z,3.50
2019-04-25T20:38:25.002Z,3.40
2019-04-25T20:40:53.914Z,3.67
2019-04-25T20:43:22.821Z,3.70
2019-04-25T20:45:52.408Z,3.33
2019-04-25T20:48:21.131Z,3.83
2019-04-25T20:50:50.366Z,3.27
2019-04-25T20:53:19.569Z,3.63
2019-04-25T20:55:48.731Z,3.63
2019-04-25T20:58:17.716Z,3.53
2019-04-25T21:00:49.641Z,3.53
2019-04-25T21:03:18.597Z,3.53
2019-04-25T21:05:49.650Z,3.93
2019-04-25T21:08:19.055Z,4.03
2019-04-25T21:10:47.967Z,4.13
2019-04-25T21:13:21.278Z,3.57
2019-04-25T21:16:09.126Z,3.70
2019-04-25T21:18:59.786Z,4.00
2019-04-25T21:21:28.523Z,3.83
2019-04-25T21:23:57.304Z,4.00
2019-04-25T21:26:26.039Z,3.90
2019-04-25T21:28:54.756Z,3.60
2019-04-25T21:31:23.435Z,4.20
2019-04-25T21:33:52.631Z,3.90
2019-04-25T21:36:21.653Z,4.10
2019-04-25T21:38:51.348Z,4.23
2019-04-25T21:41:38.782Z,3.90
2019-04-25T21:44:10.024Z,4.30
2019-04-25T21:46:38.639Z,4.17
2019-04-25T21:49:07.787Z,4.40
2019-04-25T21:51:36.351Z,4.00
2019-04-25T21:54:04.928Z,4.07
2019-04-25T21:56:34.204Z,4.23
2019-04-25T21:59:04.020Z,4.30
2019-04-25T22:01:35.604Z,4.27
2019-04-25T22:04:05.203Z,4.20
2019-04-25T22:06:34.519Z,4.23
2019-04-25T22:09:05.085Z,4.63
2019-04-25T22:11:33.973Z,4.50
2019-04-25T22:14:03.421Z,4.60
2019-04-25T22:16:32.591Z,4.33
2019-04-25T22:19:02.047Z,4.53
2019-04-25T22:21:37.978Z,4.60
2019-04-25T22:24:08.671Z,5.40
2019-04-25T22:26:31.756Z,5.30
2019-04-25T22:29:01.305Z,5.53
2019-04-25T22:31:35.019Z,5.80
2019-04-25T22:34:14.624Z,5.23
2019-04-25T22:36:43.891Z,5.57
2019-04-25T22:39:12.807Z,5.30
2019-04-25T22:41:46.270Z,5.90
2019-04-25T22:44:15.496Z,6.00
2019-04-25T22:46:44.783Z,6.07
2019-04-25T22:49:13.611Z,6.00
2019-04-25T22:51:42.255Z,5.47
2019-04-25T22:54:11.781Z,5.70
2019-04-25T22:56:40.438Z,6.43
2019-04-25T22:59:11.115Z,6.37
2019-04-25T23:01:57.846Z,5.90
2019-04-25T23:05:04.662Z,6.47
2019-04-25T23:07:25.398Z,6.33
2019-04-25T23:09:54.349Z,6.73
2019-04-25T23:12:23.570Z,7.57
2019-04-25T23:14:52.224Z,6.93
2019-04-25T23:17:21.043Z,6.67
2019-04-25T23:19:50.280Z,6.63
2019-04-25T23:22:18.927Z,6.90
2019-04-25T23:25:02.261Z,6.53
2019-04-25T23:27:43.447Z,6.80
2019-04-25T23:30:14.819Z,7.83
2019-04-25T23:32:43.951Z,7.00
2019-04-25T23:35:23.499Z,7.53
2019-04-25T23:37:43.082Z,7.87
2019-04-25T23:40:11.823Z,7.77
2019-04-25T23:42:40.539Z,7.10
2019-04-25T23:45:10.357Z,7.17
2019-04-25T23:47:39.208Z,7.33
2019-04-25T23:50:08.713Z,6.70
2019-04-25T23:52:37.510Z,6.37
2019-04-25T23:55:06.740Z,6.50
2019-04-25T23:57:36.624Z,6.83
